Thunder radar more information blitzortung!


Radar de pluja more information rain snow radar


Visita la nostra xarxa de llocs de meteo:

Template documentation
and downloads

And another site



No particular awareness of the weather is required.    There are no Weather-warnings

Pagina Historial Weather Underground text

Diari Resum Juny 4, 2016 Unitats:  Mètric    Imperial   Tant
« Previous Dia
SegĂźent Dia »
Diari Setmana Mensual Anual Personalitzada
  Maxima: Minima: Media:
Temperatura: 24.2 °C 17.6 °C 21.1 °C
Punt de rosada: 13.1 °C 5.2 °C 11.8 °C
Humitat: 65 % 42 % 56 %
Wind Speed: 16.7 km/h 0.0 km/h 6.1 km/h
RĂ fegues de vent: 19.3 km/h - -
Vent:- - ESE
Pression baro: 1015.8 hPa 1011.7 hPa -
Precipitacions: 0.0 mm    
Historical Graphs
 
 
Dades de taula per Juny 4, 2016
Temps Temperatura Punt de rosada Pression baro Vent Wind Speed RĂ fegues de vent Humitat Rainfall Rate (Hourly)
00:00 17.8 °C 5.4 °C 1011.7 hPa SW 1.9 km/h   44 % 0.0 mm
00:05 17.6 °C 5.2 °C 1011.7 hPa Calm   1.6 km/h 44 % 0.0 mm
09:40 23.7 °C 10.0 °C 1013.8 hPa East 11.3 km/h 19.3 km/h 42 % 0.0 mm
09:50 23.4 °C 10.1 °C 1013.8 hPa East 11.3 km/h 12.9 km/h 43 % 0.0 mm
10:00 23.4 °C 10.4 °C 1013.8 hPa ESE 9.7 km/h 9.7 km/h 44 % 0.0 mm
10:10 23.4 °C 10.4 °C 1013.8 hPa ESE 11.3 km/h 16.1 km/h 44 % 0.0 mm
10:30 23.6 °C 11.3 °C 1013.8 hPa ESE 8.0 km/h 12.9 km/h 46 % 0.0 mm
10:40 24.2 °C 11.5 °C 1013.8 hPa East 12.9 km/h 17.7 km/h 45 % 0.0 mm
10:50 24.2 °C 11.5 °C 1012.8 hPa East 16.1 km/h 17.7 km/h 45 % 0.0 mm
11:10 23.1 °C 11.2 °C 1012.8 hPa ESE 16.1 km/h 16.1 km/h 47 % 0.0 mm
11:20 22.8 °C 11.2 °C 1013.8 hPa ESE 4.8 km/h 12.9 km/h 48 % 0.0 mm
11:30 22.8 °C 11.5 °C 1013.8 hPa ESE 11.3 km/h 11.3 km/h 49 % 0.0 mm
11:40 22.6 °C 11.1 °C 1013.8 hPa East 8.0 km/h 9.7 km/h 48 % 0.0 mm
11:50 22.5 °C 11.2 °C 1014.8 hPa East 9.7 km/h 12.9 km/h 49 % 0.0 mm
12:00 22.5 °C 11.2 °C 1014.8 hPa ESE 8.0 km/h 12.9 km/h 49 % 0.0 mm
12:10 22.5 °C 11.6 °C 1013.8 hPa ESE 9.7 km/h 12.9 km/h 50 % 0.0 mm
12:20 22.5 °C 11.6 °C 1013.8 hPa East 4.8 km/h 14.5 km/h 50 % 0.0 mm
17:32 22.3 °C 11.4 °C 1014.8 hPa ENE 16.7 km/h 16.7 km/h 50 % 0.0 mm
17:42 22.4 °C 11.4 °C 1014.8 hPa NNE 11.1 km/h 11.1 km/h 50 % 0.0 mm
17:47 22.3 °C 11.1 °C 1014.8 hPa East 9.7 km/h 9.7 km/h 49 % 0.0 mm
17:52 22.2 °C 11.0 °C 1014.8 hPa ENE 11.1 km/h 11.1 km/h 49 % 0.0 mm
17:57 22.2 °C 11.0 °C 1014.8 hPa East 9.3 km/h 9.3 km/h 49 % 0.0 mm
18:02 22.1 °C 11.2 °C 1014.8 hPa NNE 7.4 km/h 7.4 km/h 50 % 0.0 mm
18:07 22.0 °C 11.4 °C 1014.8 hPa NNE 9.3 km/h 9.3 km/h 51 % 0.0 mm
18:12 21.9 °C 11.6 °C 1014.8 hPa ENE 11.1 km/h 11.1 km/h 52 % 0.0 mm
18:17 21.8 °C 11.8 °C 1014.8 hPa ESE 9.5 km/h 9.5 km/h 53 % 0.0 mm
18:27 21.6 °C 12.2 °C 1014.8 hPa East 9.3 km/h 9.3 km/h 55 % 0.0 mm
18:32 21.7 °C 12.0 °C 1014.8 hPa NNE 7.4 km/h 7.4 km/h 54 % 0.0 mm
18:37 21.8 °C 12.1 °C 1014.8 hPa East 10.3 km/h 10.3 km/h 54 % 0.0 mm
18:42 21.8 °C 12.3 °C 1014.8 hPa ESE 11.4 km/h 11.4 km/h 55 % 0.0 mm
18:47 21.6 °C 12.4 °C 1014.8 hPa ENE 13.0 km/h 13.0 km/h 56 % 0.0 mm
18:53 21.7 °C 12.8 °C 1014.8 hPa ENE 13.0 km/h 13.0 km/h 57 % 0.0 mm
18:57 21.6 °C 12.7 °C 1014.8 hPa ENE 11.1 km/h 11.1 km/h 57 % 0.0 mm
19:02 21.5 °C 12.6 °C 1014.8 hPa ENE 9.3 km/h 9.3 km/h 57 % 0.0 mm
19:07 21.5 °C 12.6 °C 1014.8 hPa ESE 10.0 km/h 10.0 km/h 57 % 0.0 mm
19:13 21.5 °C 12.6 °C 1014.8 hPa ESE 11.1 km/h 11.1 km/h 57 % 0.0 mm
19:18 21.6 °C 12.7 °C 1014.8 hPa East 7.4 km/h 7.4 km/h 57 % 0.0 mm
19:23 21.6 °C 12.7 °C 1014.8 hPa East 9.3 km/h 9.3 km/h 57 % 0.0 mm
19:28 21.6 °C 12.7 °C 1014.8 hPa NNE 7.4 km/h 7.4 km/h 57 % 0.0 mm
19:33 21.6 °C 12.7 °C 1014.8 hPa NNE 6.1 km/h 6.1 km/h 57 % 0.0 mm
19:38 21.5 °C 12.6 °C 1014.8 hPa WNW 7.4 km/h 7.4 km/h 57 % 0.0 mm
19:43 21.5 °C 12.6 °C 1014.8 hPa NE 5.6 km/h 5.6 km/h 57 % 0.0 mm
19:48 21.4 °C 12.5 °C 1014.8 hPa ENE 5.6 km/h 5.6 km/h 57 % 0.0 mm
19:58 21.3 °C 12.7 °C 1014.8 hPa NE 3.9 km/h 3.9 km/h 58 % 0.0 mm
20:03 21.2 °C 12.6 °C 1015.8 hPa NE 4.2 km/h 4.7 km/h 58 % 0.0 mm
20:08 21.2 °C 12.6 °C 1015.8 hPa ENE 3.7 km/h 3.7 km/h 58 % 0.0 mm
20:13 21.2 °C 12.6 °C 1015.8 hPa ENE 4.2 km/h 4.2 km/h 58 % 0.0 mm
20:18 21.2 °C 12.6 °C 1014.8 hPa ENE 3.7 km/h 3.7 km/h 58 % 0.0 mm
20:23 21.2 °C 12.6 °C 1014.8 hPa ENE 4.2 km/h 4.2 km/h 58 % 0.0 mm
20:28 21.2 °C 12.9 °C 1014.8 hPa NNE 3.7 km/h 3.7 km/h 59 % 0.0 mm
20:33 21.2 °C 12.9 °C 1014.8 hPa ENE 1.9 km/h 1.9 km/h 59 % 0.0 mm
20:38 21.2 °C 12.9 °C 1014.8 hPa NE 2.3 km/h   59 % 0.0 mm
20:43 21.1 °C 12.8 °C 1014.8 hPa NNE 3.7 km/h 3.7 km/h 59 % 0.0 mm
20:48 21.1 °C 13.1 °C 1014.8 hPa NNE 3.9 km/h 3.9 km/h 60 % 0.0 mm
20:53 21.1 °C 12.8 °C 1014.8 hPa NNE 7.4 km/h 7.4 km/h 59 % 0.0 mm
20:58 20.9 °C 12.3 °C 1014.8 hPa ENE 3.7 km/h 3.7 km/h 58 % 0.0 mm
21:03 20.8 °C 11.9 °C 1014.8 hPa NE 5.6 km/h 5.6 km/h 57 % 0.0 mm
21:08 20.8 °C 11.7 °C 1014.8 hPa NNE 5.8 km/h 5.8 km/h 56 % 0.0 mm
21:13 20.7 °C 11.6 °C 1014.8 hPa NE 7.4 km/h 7.4 km/h 56 % 0.0 mm
21:19 20.7 °C 11.6 °C 1013.8 hPa NE 3.9 km/h 3.9 km/h 56 % 0.0 mm
21:24 20.6 °C 11.5 °C 1013.8 hPa NE 1.9 km/h 1.9 km/h 56 % 0.0 mm
21:29 20.6 °C 11.5 °C 1013.8 hPa WNW 1.9 km/h 1.9 km/h 56 % 0.0 mm
21:39 20.5 °C 11.4 °C 1013.8 hPa Calm     56 % 0.0 mm
21:44 20.4 °C 11.3 °C 1013.8 hPa Calm     56 % 0.0 mm
21:49 20.4 °C 11.3 °C 1013.8 hPa West 3.7 km/h 3.7 km/h 56 % 0.0 mm
21:54 20.4 °C 11.6 °C 1013.8 hPa WSW 3.7 km/h 3.7 km/h 57 % 0.0 mm
21:59 20.3 °C 11.8 °C 1013.8 hPa NW 1.9 km/h   58 % 0.0 mm
22:04 20.2 °C 11.9 °C 1014.8 hPa WNW 1.9 km/h   59 % 0.0 mm
22:09 20.1 °C 11.8 °C 1014.8 hPa SSW 3.7 km/h 3.7 km/h 59 % 0.0 mm
22:14 20.0 °C 11.7 °C 1014.8 hPa WNW 3.7 km/h 3.7 km/h 59 % 0.0 mm
22:19 19.9 °C 12.2 °C 1014.8 hPa Calm     61 % 0.0 mm
22:24 19.9 °C 12.2 °C 1014.8 hPa NW 1.9 km/h   61 % 0.0 mm
22:29 19.8 °C 12.1 °C 1014.8 hPa West 2.6 km/h   61 % 0.0 mm
22:34 19.7 °C 12.2 °C 1015.8 hPa Calm     62 % 0.0 mm
22:39 19.7 °C 12.2 °C 1015.8 hPa Calm     62 % 0.0 mm
22:44 19.6 °C 12.4 °C 1015.8 hPa WNW 1.9 km/h   63 % 0.0 mm
22:49 19.5 °C 12.5 °C 1014.8 hPa ENE 2.3 km/h   64 % 0.0 mm
22:54 19.4 °C 12.2 °C 1014.8 hPa ENE 3.7 km/h 3.7 km/h 63 % 0.0 mm
22:59 19.3 °C 12.3 °C 1014.8 hPa ENE 3.5 km/h   64 % 0.0 mm
23:04 19.2 °C 12.2 °C 1015.8 hPa Calm     64 % 0.0 mm
23:09 19.1 °C 12.1 °C 1015.8 hPa NE 1.9 km/h   64 % 0.0 mm
23:14 19.0 °C 12.1 °C 1015.8 hPa ENE 1.9 km/h   64 % 0.0 mm
23:19 18.9 °C 12.2 °C 1015.8 hPa NE 2.6 km/h 2.6 km/h 65 % 0.0 mm
23:29 18.8 °C 12.1 °C 1015.8 hPa ENE 1.9 km/h 1.9 km/h 65 % 0.0 mm
23:34 18.7 °C 12.0 °C 1015.8 hPa WNW 1.9 km/h   65 % 0.0 mm
23:40 18.7 °C 11.7 °C 1015.8 hPa NNE 1.6 km/h 4.8 km/h 64 % 0.0 mm
23:45 18.6 °C 11.7 °C 1015.8 hPa ENE 5.6 km/h 5.6 km/h 64 % 0.0 mm
23:50 18.6 °C 11.7 °C 1015.8 hPa East 3.2 km/h 4.8 km/h 64 % 0.0 mm
23:55 18.6 °C 11.9 °C 1015.8 hPa SSW 5.6 km/h 5.6 km/h 65 % 0.0 mm
Meteo Sesrovires
Elogis d' Weather Underground - 3 mb

Guio original per  Jim McMurry - jmcmurry@mwt.net Adaptat per a la plantilla per  Wim van der Kuil - Leuven-Template.eu

Trobareu la nostra informacio del temps tambe a:

Weather Underground

AWEKAS